createdAt,value
2022-12-06T00:01:23.822Z,3.40
2022-12-06T00:03:54.687Z,3.10
2022-12-06T00:06:25.277Z,3.07
2022-12-06T00:08:55.847Z,3.37
2022-12-06T00:11:26.092Z,3.43
2022-12-06T00:13:55.568Z,3.17
2022-12-06T00:16:24.684Z,2.90
2022-12-06T00:18:53.166Z,2.97
2022-12-06T00:21:24.548Z,2.90
2022-12-06T00:23:57.035Z,3.73
2022-12-06T00:26:25.935Z,3.60
2022-12-06T00:28:54.772Z,2.57
2022-12-06T00:31:25.010Z,3.10
2022-12-06T00:33:53.846Z,3.20
2022-12-06T00:36:23.933Z,3.60
2022-12-06T00:38:52.645Z,3.70
2022-12-06T00:41:24.802Z,3.23
2022-12-06T00:43:53.759Z,3.03
2022-12-06T00:46:23.829Z,3.47
2022-12-06T00:48:53.064Z,3.37
2022-12-06T00:51:22.073Z,3.80
2022-12-06T00:53:50.749Z,3.00
2022-12-06T00:56:19.404Z,3.30
2022-12-06T00:58:49.441Z,3.00
2022-12-06T01:01:20.284Z,2.97
2022-12-06T01:03:51.444Z,3.07
2022-12-06T01:06:21.076Z,2.87
2022-12-06T01:08:49.365Z,3.30
2022-12-06T01:11:17.905Z,3.77
2022-12-06T01:13:46.092Z,3.20
2022-12-06T01:16:17.725Z,3.20
2022-12-06T01:18:47.022Z,3.47
2022-12-06T01:21:17.683Z,3.80
2022-12-06T01:23:46.904Z,3.10
2022-12-06T01:26:17.439Z,2.87
2022-12-06T01:28:45.811Z,4.00
2022-12-06T01:31:15.994Z,3.90
2022-12-06T01:33:44.804Z,3.60
2022-12-06T01:36:18.361Z,3.30
2022-12-06T01:38:50.662Z,3.27
2022-12-06T01:41:19.265Z,3.70
2022-12-06T01:43:48.418Z,3.60
2022-12-06T01:46:30.507Z,3.60
2022-12-06T01:49:08.319Z,4.13
2022-12-06T01:51:37.313Z,3.43
2022-12-06T01:54:09.587Z,3.73
2022-12-06T01:56:38.031Z,3.77
2022-12-06T01:59:07.043Z,3.90
2022-12-06T02:01:38.497Z,3.50
2022-12-06T02:04:07.236Z,3.40
2022-12-06T02:06:35.780Z,4.17
2022-12-06T02:09:06.484Z,3.43
2022-12-06T02:11:35.837Z,3.50
2022-12-06T02:14:05.792Z,3.77
2022-12-06T02:16:47.093Z,3.23
2022-12-06T02:19:39.121Z,3.53
2022-12-06T02:22:13.902Z,3.93
2022-12-06T02:24:59.726Z,3.80
2022-12-06T02:27:51.136Z,3.60
2022-12-06T02:30:46.129Z,3.27
2022-12-06T02:33:22.088Z,4.23
2022-12-06T02:35:54.914Z,4.10
2022-12-06T02:38:29.468Z,3.50
2022-12-06T02:41:00.395Z,3.80
2022-12-06T02:43:35.444Z,4.17
2022-12-06T02:46:06.988Z,4.60
2022-12-06T02:48:36.135Z,3.30
2022-12-06T02:51:08.406Z,3.53
2022-12-06T02:53:40.020Z,3.53
2022-12-06T02:56:09.556Z,3.73
2022-12-06T02:58:38.145Z,3.60
2022-12-06T03:01:12.193Z,3.77
2022-12-06T03:04:01.753Z,3.67
2022-12-06T03:07:00.349Z,3.53
2022-12-06T03:09:53.588Z,3.77
2022-12-06T03:12:31.758Z,3.67
2022-12-06T03:15:09.848Z,3.87
2022-12-06T03:17:44.116Z,3.90
2022-12-06T03:20:17.078Z,3.80
2022-12-06T03:22:49.946Z,3.93
2022-12-06T03:25:18.956Z,4.30
2022-12-06T03:27:49.285Z,3.40
2022-12-06T03:30:17.949Z,3.23
2022-12-06T03:32:49.927Z,3.73
2022-12-06T03:35:21.297Z,3.40
2022-12-06T03:37:54.341Z,3.67
2022-12-06T03:40:27.397Z,3.33
2022-12-06T03:42:55.996Z,3.97
2022-12-06T03:45:28.220Z,3.60
2022-12-06T03:48:04.310Z,3.87
2022-12-06T03:50:35.119Z,3.57
2022-12-06T03:53:03.471Z,3.80
2022-12-06T03:55:31.696Z,3.70
2022-12-06T03:57:59.884Z,4.30
2022-12-06T04:00:28.030Z,3.80
2022-12-06T04:02:57.577Z,4.10
2022-12-06T04:05:25.764Z,3.57
2022-12-06T04:07:53.971Z,3.50
2022-12-06T04:10:22.976Z,3.70
2022-12-06T04:13:03.582Z,4.20
2022-12-06T04:15:34.720Z,3.50
2022-12-06T04:18:16.347Z,4.73
2022-12-06T04:21:05.637Z,3.60
2022-12-06T04:23:38.473Z,3.53
2022-12-06T04:26:09.164Z,3.80
2022-12-06T04:28:55.334Z,3.90
2022-12-06T04:31:40.982Z,3.67
2022-12-06T04:34:27.875Z,3.53
2022-12-06T04:37:13.869Z,4.07
2022-12-06T04:39:42.087Z,3.97
2022-12-06T04:42:28.321Z,3.73
2022-12-06T04:44:56.735Z,3.33
2022-12-06T04:47:25.291Z,3.90
2022-12-06T04:49:54.920Z,4.13
2022-12-06T04:52:23.124Z,4.00
2022-12-06T04:54:51.315Z,3.97
2022-12-06T04:57:20.104Z,4.10
2022-12-06T04:59:49.413Z,3.83
2022-12-06T05:02:17.637Z,3.83
2022-12-06T05:04:45.865Z,4.80
2022-12-06T05:07:15.468Z,4.17
2022-12-06T05:09:43.669Z,3.90
2022-12-06T05:12:11.843Z,3.33
2022-12-06T05:14:40.012Z,3.80
2022-12-06T05:17:08.187Z,4.00
2022-12-06T05:19:36.434Z,3.93
2022-12-06T05:22:04.684Z,4.30
2022-12-06T05:24:34.390Z,4.00
2022-12-06T05:27:02.909Z,3.20
2022-12-06T05:29:31.218Z,3.97
2022-12-06T05:31:59.467Z,3.80
2022-12-06T05:34:27.717Z,4.00
2022-12-06T05:36:55.836Z,4.50
2022-12-06T05:39:24.420Z,4.00
2022-12-06T05:41:53.966Z,3.60
2022-12-06T05:44:22.117Z,4.77
2022-12-06T05:46:50.312Z,4.10
2022-12-06T05:49:18.503Z,5.17
2022-12-06T05:51:46.696Z,4.07
2022-12-06T05:54:14.902Z,3.93
2022-12-06T05:56:43.116Z,3.60
2022-12-06T05:59:12.713Z,3.60
2022-12-06T06:01:40.898Z,3.80
2022-12-06T06:04:09.192Z,4.37
2022-12-06T06:06:37.399Z,4.40
2022-12-06T06:09:05.543Z,4.03
2022-12-06T06:11:33.694Z,3.90
2022-12-06T06:14:01.886Z,4.20
2022-12-06T06:16:32.834Z,4.13
2022-12-06T06:19:01.738Z,4.47
2022-12-06T06:21:30.101Z,4.10
2022-12-06T06:23:58.749Z,4.23
2022-12-06T06:26:27.047Z,5.43
2022-12-06T06:28:55.302Z,4.00
2022-12-06T06:31:23.679Z,4.63
2022-12-06T06:33:53.254Z,4.83
2022-12-06T06:36:21.380Z,4.17
2022-12-06T06:38:49.522Z,4.00
2022-12-06T06:41:17.774Z,3.90
2022-12-06T06:43:45.918Z,4.43
2022-12-06T06:46:14.154Z,4.00
2022-12-06T06:48:42.421Z,4.10
2022-12-06T06:51:13.647Z,5.07
2022-12-06T06:53:42.201Z,4.70
2022-12-06T06:56:10.506Z,4.30
2022-12-06T06:58:39.127Z,4.50
2022-12-06T07:01:08.923Z,4.67
2022-12-06T07:03:37.192Z,6.43
2022-12-06T07:06:08.930Z,5.60
2022-12-06T07:08:40.101Z,5.83
2022-12-06T07:11:08.272Z,5.40
2022-12-06T07:13:38.807Z,5.80
2022-12-06T07:16:08.953Z,5.53
2022-12-06T07:18:37.124Z,5.20
2022-12-06T07:21:07.421Z,5.83
2022-12-06T07:23:38.368Z,5.40
2022-12-06T07:26:09.369Z,5.67
2022-12-06T07:28:38.198Z,5.50
2022-12-06T07:31:10.637Z,4.90
2022-12-06T07:33:39.193Z,5.60
2022-12-06T07:36:13.367Z,6.10
2022-12-06T07:38:43.837Z,5.30
2022-12-06T07:41:31.284Z,6.33
2022-12-06T07:44:17.954Z,7.00
2022-12-06T07:46:46.796Z,8.07
2022-12-06T07:49:16.643Z,8.10
2022-12-06T07:51:45.337Z,7.27
2022-12-06T07:54:15.312Z,6.70
2022-12-06T07:56:44.035Z,6.73
2022-12-06T07:59:13.112Z,6.80
2022-12-06T08:01:41.579Z,7.50
2022-12-06T08:04:09.959Z,7.67
2022-12-06T08:06:38.660Z,7.00
2022-12-06T08:09:07.456Z,6.80
2022-12-06T08:11:37.467Z,6.70
2022-12-06T08:14:05.742Z,6.23
2022-12-06T08:16:34.077Z,7.30
2022-12-06T08:19:02.636Z,7.43
2022-12-06T08:21:30.888Z,5.90
2022-12-06T08:23:59.070Z,6.57
2022-12-06T08:26:27.279Z,6.30
2022-12-06T08:28:56.844Z,6.80
2022-12-06T08:31:25.820Z,5.40
2022-12-06T08:33:54.198Z,5.87
2022-12-06T08:36:23.856Z,4.93
2022-12-06T08:38:52.727Z,5.73
2022-12-06T08:41:54.085Z,5.47
2022-12-06T08:44:24.014Z,4.50
2022-12-06T08:46:52.785Z,5.00
2022-12-06T08:49:21.230Z,5.00
2022-12-06T08:51:49.445Z,5.17
2022-12-06T08:54:20.023Z,5.70
2022-12-06T08:56:48.398Z,5.97
2022-12-06T08:59:16.716Z,5.20
2022-12-06T09:01:47.183Z,5.27
2022-12-06T09:04:15.918Z,5.33
2022-12-06T09:06:48.327Z,5.97
2022-12-06T09:09:18.519Z,5.63
2022-12-06T09:11:47.200Z,4.83
2022-12-06T09:14:21.366Z,5.53
2022-12-06T09:16:52.919Z,4.10
2022-12-06T09:19:21.567Z,4.80
2022-12-06T09:21:49.733Z,4.93
2022-12-06T09:24:19.429Z,4.90
2022-12-06T09:26:48.229Z,4.83
2022-12-06T09:29:17.359Z,5.97
2022-12-06T09:31:45.731Z,5.40
2022-12-06T09:34:15.536Z,5.40
2022-12-06T09:36:47.598Z,5.80
2022-12-06T09:39:19.671Z,4.70
2022-12-06T09:42:32.610Z,4.80
2022-12-06T09:45:24.992Z,4.80
2022-12-06T09:48:12.998Z,4.23
2022-12-06T09:50:53.757Z,5.80
2022-12-06T09:53:29.130Z,5.00
2022-12-06T09:56:07.412Z,4.40
2022-12-06T09:58:51.151Z,4.47
2022-12-06T10:01:28.459Z,4.10
2022-12-06T10:04:10.164Z,5.17
2022-12-06T10:06:45.516Z,4.67
2022-12-06T10:09:30.527Z,4.30
2022-12-06T10:12:11.884Z,4.10
2022-12-06T10:15:01.324Z,4.30
2022-12-06T10:17:36.481Z,5.10
2022-12-06T10:20:11.034Z,4.13
2022-12-06T10:22:56.488Z,4.13
2022-12-06T10:25:31.745Z,4.07
2022-12-06T10:28:11.776Z,3.87
2022-12-06T10:30:49.926Z,4.10
2022-12-06T10:33:26.525Z,3.80
2022-12-06T10:35:57.411Z,3.97
2022-12-06T10:38:31.432Z,4.63
2022-12-06T10:41:08.181Z,3.93
2022-12-06T10:43:44.325Z,4.07
2022-12-06T10:46:38.623Z,4.30
2022-12-06T10:49:16.473Z,4.60
2022-12-06T10:51:50.967Z,4.00
2022-12-06T10:54:29.075Z,3.77
2022-12-06T10:57:00.900Z,4.17
2022-12-06T10:59:35.833Z,3.73
2022-12-06T11:02:21.414Z,3.50
2022-12-06T11:04:51.315Z,4.50
2022-12-06T11:07:25.015Z,4.40
2022-12-06T11:09:57.629Z,3.67
2022-12-06T11:12:31.624Z,3.93
2022-12-06T11:15:05.634Z,4.23
2022-12-06T11:17:37.786Z,4.30
2022-12-06T11:20:17.141Z,3.90
2022-12-06T11:22:51.460Z,4.17
2022-12-06T11:25:28.073Z,4.03
2022-12-06T11:28:02.315Z,3.60
2022-12-06T11:30:33.923Z,4.00
2022-12-06T11:33:03.307Z,4.23
2022-12-06T11:35:32.231Z,4.43
2022-12-06T11:38:03.460Z,4.00
2022-12-06T11:40:36.521Z,4.03
2022-12-06T11:43:09.283Z,4.17
2022-12-06T11:45:40.652Z,4.30
2022-12-06T11:48:16.385Z,4.47
2022-12-06T11:50:45.301Z,3.97
2022-12-06T11:53:20.879Z,3.60
2022-12-06T11:55:53.170Z,4.13
2022-12-06T11:58:29.478Z,4.27
2022-12-06T12:01:00.916Z,3.70
2022-12-06T12:03:31.110Z,3.50
2022-12-06T12:06:21.026Z,3.77
2022-12-06T12:08:55.387Z,3.90
2022-12-06T12:11:27.627Z,3.60
2022-12-06T12:13:59.895Z,3.90
2022-12-06T12:16:31.339Z,4.33
2022-12-06T12:19:02.405Z,4.20
2022-12-06T12:21:37.756Z,4.47
2022-12-06T12:24:07.876Z,3.97
2022-12-06T12:26:40.676Z,4.33
2022-12-06T12:29:19.974Z,4.47
2022-12-06T12:31:54.651Z,4.33
2022-12-06T12:34:28.838Z,4.47
2022-12-06T12:37:00.367Z,3.97
2022-12-06T12:39:34.221Z,6.40
2022-12-06T12:42:04.662Z,4.47
2022-12-06T12:44:37.996Z,3.50
2022-12-06T12:47:18.779Z,4.23
2022-12-06T12:50:18.718Z,3.80
2022-12-06T12:52:47.244Z,5.10
2022-12-06T12:55:18.680Z,3.90
2022-12-06T12:57:49.968Z,4.30
2022-12-06T13:00:19.957Z,3.80
2022-12-06T13:02:53.010Z,4.10
2022-12-06T13:05:33.269Z,3.97
2022-12-06T13:08:08.604Z,3.60
2022-12-06T13:10:40.213Z,4.10
2022-12-06T13:13:16.195Z,3.20
2022-12-06T13:15:47.363Z,3.87
2022-12-06T13:18:21.435Z,3.57
2022-12-06T13:20:50.847Z,3.50
2022-12-06T13:23:21.255Z,3.50
2022-12-06T13:25:54.019Z,3.20
2022-12-06T13:28:28.469Z,3.60
2022-12-06T13:31:01.772Z,4.87
2022-12-06T13:33:34.386Z,4.03
2022-12-06T13:36:05.979Z,3.90
2022-12-06T13:38:36.720Z,3.77
2022-12-06T13:41:06.118Z,3.70
2022-12-06T13:43:57.039Z,4.03
2022-12-06T13:46:33.617Z,4.13
2022-12-06T13:49:26.786Z,4.10
2022-12-06T13:51:55.092Z,4.30
2022-12-06T13:54:31.625Z,4.27
2022-12-06T13:57:03.330Z,3.80
2022-12-06T13:59:40.125Z,4.23
2022-12-06T14:02:51.032Z,4.50
2022-12-06T14:06:01.116Z,4.00
2022-12-06T14:08:35.397Z,3.80
2022-12-06T14:11:17.399Z,3.40
2022-12-06T14:13:47.787Z,3.87
2022-12-06T14:16:23.260Z,4.30
2022-12-06T14:18:52.292Z,4.00
2022-12-06T14:21:27.386Z,3.97
2022-12-06T14:23:55.584Z,3.70
2022-12-06T14:26:27.654Z,4.23
2022-12-06T14:28:58.634Z,4.20
2022-12-06T14:31:31.135Z,4.07
2022-12-06T14:33:59.405Z,4.20
2022-12-06T14:36:31.147Z,3.93
2022-12-06T14:39:02.240Z,4.00
2022-12-06T14:41:54.148Z,3.63
2022-12-06T14:44:28.070Z,3.20
2022-12-06T14:46:58.625Z,4.23
2022-12-06T14:49:46.484Z,4.33
2022-12-06T14:52:26.306Z,4.30
2022-12-06T14:55:13.531Z,4.30
2022-12-06T14:57:46.677Z,4.37
2022-12-06T15:00:25.745Z,4.10
2022-12-06T15:03:23.099Z,4.20
2022-12-06T15:06:09.353Z,3.90
2022-12-06T15:08:39.002Z,4.27
2022-12-06T15:11:37.390Z,4.07
2022-12-06T15:14:14.875Z,3.73
2022-12-06T15:16:47.064Z,4.60
2022-12-06T15:19:18.473Z,3.77
2022-12-06T15:21:46.620Z,4.40
2022-12-06T15:24:18.368Z,4.27
2022-12-06T15:26:46.522Z,4.07
2022-12-06T15:29:15.107Z,4.17
2022-12-06T15:31:46.151Z,3.90
2022-12-06T15:34:23.401Z,3.73
2022-12-06T15:37:03.912Z,4.47
2022-12-06T15:39:40.005Z,3.80
2022-12-06T15:42:17.874Z,3.60
2022-12-06T15:44:49.689Z,4.67
2022-12-06T15:47:19.576Z,4.00
2022-12-06T15:49:51.174Z,4.10
2022-12-06T15:52:23.063Z,4.47
2022-12-06T15:54:51.621Z,4.00
2022-12-06T15:57:19.804Z,3.80
2022-12-06T15:59:47.948Z,4.00
2022-12-06T16:02:17.740Z,4.07
2022-12-06T16:04:48.401Z,4.27
2022-12-06T16:07:19.248Z,3.97
2022-12-06T16:09:48.113Z,3.93
2022-12-06T16:12:16.628Z,3.90
2022-12-06T16:14:45.037Z,3.60
2022-12-06T16:17:13.182Z,3.50
2022-12-06T16:19:58.867Z,3.67
2022-12-06T16:22:42.299Z,3.70
2022-12-06T16:25:10.965Z,4.10
2022-12-06T16:27:39.094Z,4.17
2022-12-06T16:30:08.574Z,3.50
2022-12-06T16:32:36.766Z,3.80
2022-12-06T16:35:05.287Z,4.70
2022-12-06T16:37:34.860Z,4.03
2022-12-06T16:40:03.161Z,3.97
2022-12-06T16:42:31.387Z,4.57
2022-12-06T16:44:59.777Z,3.70
2022-12-06T16:49:55.285Z,5.00
2022-12-06T16:52:23.452Z,3.53
2022-12-06T16:54:53.149Z,3.63
2022-12-06T16:57:21.425Z,3.67
2022-12-06T16:59:49.588Z,3.97
2022-12-06T17:02:27.573Z,3.40
2022-12-06T17:04:56.125Z,3.70
2022-12-06T17:07:24.789Z,3.80
2022-12-06T17:09:54.508Z,3.97
2022-12-06T17:12:22.851Z,3.40
2022-12-06T17:14:50.985Z,4.00
2022-12-06T17:17:21.561Z,4.13
2022-12-06T17:19:50.743Z,3.83
2022-12-06T17:22:19.816Z,4.10
2022-12-06T17:24:48.110Z,4.50
2022-12-06T17:27:17.948Z,3.70
2022-12-06T17:29:46.359Z,3.37
2022-12-06T17:32:15.224Z,3.70
2022-12-06T17:34:43.514Z,3.77
2022-12-06T17:37:11.871Z,3.20
2022-12-06T17:39:40.572Z,3.73
2022-12-06T17:42:26.298Z,3.50
2022-12-06T17:44:55.934Z,3.27
2022-12-06T17:47:24.215Z,4.50
2022-12-06T17:49:54.242Z,3.80
2022-12-06T17:52:22.517Z,3.67
2022-12-06T17:54:50.698Z,3.40
2022-12-06T17:57:19.395Z,3.37
2022-12-06T17:59:48.920Z,4.03
2022-12-06T18:02:23.326Z,3.37
2022-12-06T18:04:52.605Z,3.60
2022-12-06T18:07:21.098Z,3.40
2022-12-06T18:09:49.675Z,3.00
2022-12-06T18:12:19.313Z,2.97
2022-12-06T18:14:47.604Z,3.57
2022-12-06T18:17:15.882Z,3.30
2022-12-06T18:19:47.123Z,3.37
2022-12-06T18:22:15.838Z,3.10
2022-12-06T18:24:44.722Z,3.50
2022-12-06T18:27:13.423Z,2.97
2022-12-06T18:29:41.649Z,2.53
2022-12-06T18:32:09.987Z,3.10
2022-12-06T18:34:38.386Z,3.13
2022-12-06T18:37:07.973Z,4.13
2022-12-06T18:39:36.147Z,4.33
2022-12-06T18:42:04.374Z,6.00
2022-12-06T18:44:32.641Z,5.93
2022-12-06T18:47:01.226Z,5.90
2022-12-06T18:49:29.462Z,6.03
2022-12-06T18:51:57.639Z,6.97
2022-12-06T18:54:28.248Z,6.90
2022-12-06T18:56:58.512Z,7.40
2022-12-06T18:59:27.893Z,9.60
2022-12-06T19:01:56.817Z,9.30
2022-12-06T19:04:25.286Z,11.30
2022-12-06T19:06:54.269Z,10.63
2022-12-06T19:09:23.178Z,8.47
2022-12-06T19:11:52.741Z,8.80
2022-12-06T19:14:21.257Z,8.20
2022-12-06T19:16:51.388Z,8.80
2022-12-06T19:19:21.360Z,8.43
2022-12-06T19:21:51.597Z,8.30
2022-12-06T19:24:22.446Z,8.80
2022-12-06T19:26:53.829Z,7.63
2022-12-06T19:29:22.484Z,8.20
2022-12-06T19:31:53.483Z,6.83
2022-12-06T19:34:23.592Z,7.93
2022-12-06T19:36:53.556Z,7.60
2022-12-06T19:39:22.377Z,6.53
2022-12-06T19:42:08.282Z,5.77
2022-12-06T19:44:37.828Z,6.43
2022-12-06T19:47:06.463Z,6.57
2022-12-06T19:49:34.733Z,7.30
2022-12-06T19:52:02.952Z,6.53
2022-12-06T19:54:32.735Z,6.00
2022-12-06T19:57:01.959Z,5.97
2022-12-06T19:59:32.309Z,6.23
2022-12-06T20:02:02.616Z,5.60
2022-12-06T20:04:32.603Z,5.77
2022-12-06T20:07:01.118Z,5.80
2022-12-06T20:09:31.703Z,6.03
2022-12-06T20:12:05.208Z,5.53
2022-12-06T20:14:44.308Z,5.10
2022-12-06T20:17:16.193Z,5.40
2022-12-06T20:19:46.167Z,4.27
2022-12-06T20:22:15.263Z,5.13
2022-12-06T20:24:43.675Z,4.60
2022-12-06T20:27:12.463Z,4.60
2022-12-06T20:29:40.783Z,4.10
2022-12-06T20:32:09.110Z,4.10
2022-12-06T20:34:39.185Z,4.30
2022-12-06T20:37:07.792Z,4.63
2022-12-06T20:39:36.495Z,4.60
2022-12-06T20:42:06.843Z,4.80
2022-12-06T20:44:35.553Z,4.33
2022-12-06T20:47:04.047Z,4.47
2022-12-06T20:49:32.405Z,4.07
2022-12-06T20:52:02.953Z,5.90
2022-12-06T20:54:31.599Z,4.90
2022-12-06T20:57:00.128Z,4.70
2022-12-06T20:59:29.363Z,5.83
2022-12-06T21:01:58.560Z,5.50
2022-12-06T21:04:27.504Z,4.47
2022-12-06T21:06:56.334Z,5.07
2022-12-06T21:09:26.119Z,4.63
2022-12-06T21:11:54.397Z,4.53
2022-12-06T21:14:22.734Z,4.23
2022-12-06T21:16:51.069Z,3.80
2022-12-06T21:19:20.632Z,4.20
2022-12-06T21:21:55.233Z,4.70
2022-12-06T21:24:25.321Z,4.80
2022-12-06T21:26:53.632Z,4.00
2022-12-06T21:29:30.411Z,4.50
2022-12-06T21:32:01.984Z,4.90
2022-12-06T21:34:30.196Z,4.97
2022-12-06T21:36:58.591Z,4.00
2022-12-06T21:39:28.158Z,3.90
2022-12-06T21:41:56.325Z,4.70
2022-12-06T21:44:24.911Z,4.00
2022-12-06T21:46:53.655Z,3.50
2022-12-06T21:49:22.151Z,5.73
2022-12-06T21:51:53.751Z,4.20
2022-12-06T21:54:24.958Z,3.60
2022-12-06T21:56:54.453Z,4.60
2022-12-06T21:59:23.981Z,4.30
2022-12-06T22:01:52.816Z,4.17
2022-12-06T22:04:21.031Z,4.20
2022-12-06T22:06:49.182Z,3.17
2022-12-06T22:09:17.377Z,3.70
2022-12-06T22:11:45.782Z,4.60
2022-12-06T22:14:15.323Z,4.40
2022-12-06T22:16:43.515Z,3.73
2022-12-06T22:19:11.705Z,4.27
2022-12-06T22:21:39.836Z,3.93
2022-12-06T22:24:08.751Z,3.90
2022-12-06T22:26:36.946Z,3.73
2022-12-06T22:29:05.128Z,3.80
2022-12-06T22:31:35.267Z,4.23
2022-12-06T22:34:04.032Z,3.80
2022-12-06T22:36:32.910Z,4.00
2022-12-06T22:39:03.179Z,4.43
2022-12-06T22:41:31.668Z,3.43
2022-12-06T22:44:01.414Z,3.60
2022-12-06T22:46:31.080Z,3.27
2022-12-06T22:49:01.680Z,3.63
2022-12-06T22:51:31.231Z,3.67
2022-12-06T22:54:01.249Z,4.00
2022-12-06T22:56:30.929Z,3.70
2022-12-06T22:59:00.972Z,4.00
2022-12-06T23:01:31.143Z,3.40
2022-12-06T23:04:03.456Z,3.30
2022-12-06T23:06:31.800Z,4.20
2022-12-06T23:09:00.074Z,3.90
2022-12-06T23:11:30.053Z,3.53
2022-12-06T23:13:59.257Z,4.17
2022-12-06T23:16:30.418Z,4.27
2022-12-06T23:19:01.559Z,3.70
2022-12-06T23:21:31.158Z,3.40
2022-12-06T23:24:00.960Z,3.50
2022-12-06T23:26:31.039Z,3.40
2022-12-06T23:28:59.212Z,3.93
2022-12-06T23:31:29.776Z,3.47
2022-12-06T23:33:59.976Z,3.90
2022-12-06T23:36:33.337Z,3.23
2022-12-06T23:39:01.814Z,4.70
2022-12-06T23:41:31.631Z,3.67
2022-12-06T23:44:00.736Z,4.17
2022-12-06T23:46:30.829Z,3.40
2022-12-06T23:49:00.790Z,3.73
2022-12-06T23:51:34.079Z,3.60
2022-12-06T23:54:03.820Z,4.20
2022-12-06T23:56:34.299Z,4.07
2022-12-06T23:59:04.590Z,3.73
